Time;durP1;ratioP1;P1;durP2;ratioP2;P2;SDS_P1;SDS_P2;PMS_P1;PMS_P2;Temp;Humidity;BMP_temperature;BMP_pressure;BME280_temperature;BME280_humidity;BME280_pressure;Samples;Min_cycle;Max_cycle;Signal;HPM_P1;HPM_P2
2023/12/07 00:01:46;;;;;;;6.60;5.10;;;3.20;99.90;;;;;;5065887;28;20204;-68
2023/12/07 00:04:12;;;;;;;6.80;5.33;;;3.20;99.90;;;;;;5074220;28;20339;-67
2023/12/07 00:06:40;;;;;;;7.40;5.63;;;3.20;99.90;;;;;;5054114;28;20182;-67
2023/12/07 00:09:05;;;;;;;6.13;5.40;;;3.30;99.90;;;;;;5067318;28;20199;-67
2023/12/07 00:11:31;;;;;;;6.87;5.60;;;3.30;99.90;;;;;;5061229;28;20184;-68
2023/12/07 00:13:56;;;;;;;6.70;5.37;;;3.30;99.90;;;;;;5058365;28;20209;-66
2023/12/07 00:16:22;;;;;;;7.27;5.83;;;3.40;99.90;;;;;;5080200;28;20182;-68
2023/12/07 00:18:48;;;;;;;10.77;6.03;;;3.40;99.90;;;;;;5072612;28;20181;-65
2023/12/07 00:21:13;;;;;;;7.10;5.63;;;3.40;99.90;;;;;;5073132;28;20300;-66
2023/12/07 00:23:41;;;;;;;7.17;5.83;;;3.50;99.90;;;;;;5049595;28;20176;-65
2023/12/07 00:26:07;;;;;;;6.33;5.10;;;3.50;99.90;;;;;;5073419;28;20191;-67
2023/12/07 00:28:35;;;;;;;6.37;5.60;;;3.50;99.90;;;;;;5066347;28;20169;-65
2023/12/07 00:31:05;;;;;;;10.33;6.33;;;3.50;99.90;;;;;;5053324;28;20213;-66
2023/12/07 00:33:30;;;;;;;6.50;5.30;;;3.60;99.90;;;;;;5057516;28;20208;-66
2023/12/07 00:35:58;;;;;;;7.07;5.90;;;3.60;99.90;;;;;;5057595;28;20257;-67
2023/12/07 00:38:24;;;;;;;6.50;5.50;;;3.60;99.90;;;;;;5052573;28;20181;-66
2023/12/07 00:40:49;;;;;;;6.27;5.17;;;3.70;99.90;;;;;;5051190;28;20180;-67
2023/12/07 00:43:15;;;;;;;6.37;5.33;;;3.70;99.90;;;;;;5074390;28;20172;-68
2023/12/07 00:45:41;;;;;;;6.00;5.33;;;3.80;99.90;;;;;;5057196;28;20243;-69
2023/12/07 00:48:07;;;;;;;8.60;5.23;;;3.70;99.90;;;;;;5057238;28;20204;-65
2023/12/07 00:50:35;;;;;;;12.90;5.63;;;3.70;99.90;;;;;;5057307;28;20169;-66
2023/12/07 00:53:00;;;;;;;6.90;5.77;;;3.80;99.90;;;;;;5054328;28;20200;-67
2023/12/07 00:55:28;;;;;;;8.20;6.70;;;3.80;99.90;;;;;;5056962;28;20184;-66
2023/12/07 00:58:03;;;;;;;6.60;5.43;;;3.90;99.90;;;;;;5073522;28;20196;-66
2023/12/07 01:00:28;;;;;;;6.63;5.67;;;3.90;99.90;;;;;;5074255;28;20501;-67
2023/12/07 01:02:59;;;;;;;7.13;5.43;;;3.90;99.90;;;;;;5056981;28;20189;-66
2023/12/07 01:05:25;;;;;;;6.70;5.73;;;4.00;99.90;;;;;;5056910;28;20261;-67
2023/12/07 01:07:51;;;;;;;7.47;5.80;;;4.00;99.90;;;;;;5056349;28;20189;-66
2023/12/07 01:10:19;;;;;;;6.77;5.70;;;4.10;99.90;;;;;;5056867;28;20236;-66
2023/12/07 01:12:44;;;;;;;8.47;6.37;;;4.10;99.90;;;;;;5061413;28;20191;-66
2023/12/07 01:15:12;;;;;;;6.73;6.03;;;4.20;99.90;;;;;;5064491;28;20253;-66
2023/12/07 01:17:38;;;;;;;7.43;5.90;;;4.20;99.90;;;;;;5073804;28;20265;-66
2023/12/07 01:20:13;;;;;;;7.17;5.57;;;4.30;99.90;;;;;;5054744;28;20185;-66
2023/12/07 01:22:45;;;;;;;7.43;6.37;;;4.30;99.90;;;;;;5044373;28;20176;-66
2023/12/07 01:25:11;;;;;;;6.73;6.03;;;4.30;99.90;;;;;;5069183;28;20180;-66
2023/12/07 01:27:37;;;;;;;7.27;5.77;;;4.40;99.90;;;;;;5057338;28;20183;-66
2023/12/07 01:30:08;;;;;;;6.53;5.17;;;4.40;99.90;;;;;;5053905;28;20264;-66
2023/12/07 01:32:34;;;;;;;6.67;5.93;;;4.40;99.90;;;;;;5058056;28;20189;-67
2023/12/07 01:35:02;;;;;;;7.23;5.80;;;4.50;99.90;;;;;;5040898;28;20173;-66
2023/12/07 01:37:32;;;;;;;8.73;6.10;;;4.50;99.90;;;;;;5045600;28;20223;-66
2023/12/07 01:40:00;;;;;;;6.37;5.63;;;4.50;99.90;;;;;;5060436;28;20180;-67
2023/12/07 01:42:26;;;;;;;7.43;5.87;;;4.60;99.90;;;;;;5059952;28;20216;-66
2023/12/07 01:44:52;;;;;;;6.40;5.33;;;4.60;99.90;;;;;;5056930;28;20217;-66
2023/12/07 01:47:17;;;;;;;7.33;5.50;;;4.60;99.90;;;;;;5056477;28;20177;-66
2023/12/07 01:49:43;;;;;;;7.10;5.50;;;4.60;99.90;;;;;;5062545;28;20236;-66
2023/12/07 01:52:10;;;;;;;6.53;4.90;;;4.60;99.90;;;;;;5060231;28;20191;-66
2023/12/07 01:54:37;;;;;;;7.30;5.67;;;4.70;99.90;;;;;;5056790;28;20215;-66
2023/12/07 01:57:06;;;;;;;6.67;5.87;;;4.70;99.90;;;;;;5076648;28;20177;-66
2023/12/07 01:59:33;;;;;;;7.07;5.97;;;4.70;99.90;;;;;;5076437;28;20177;-66
2023/12/07 02:01:58;;;;;;;6.87;5.27;;;4.70;99.90;;;;;;5078431;28;20280;-67
2023/12/07 02:04:29;;;;;;;7.10;5.77;;;4.70;99.90;;;;;;5076534;28;20216;-67
2023/12/07 02:07:01;;;;;;;6.93;5.40;;;4.70;99.90;;;;;;5059731;28;20180;-67
2023/12/07 02:09:30;;;;;;;6.23;5.40;;;4.70;99.90;;;;;;5059542;28;20188;-68
2023/12/07 02:11:55;;;;;;;5.83;5.07;;;4.70;99.90;;;;;;5075742;28;20176;-67
2023/12/07 02:14:24;;;;;;;7.40;5.23;;;4.80;99.90;;;;;;5058558;28;20218;-67
2023/12/07 02:16:55;;;;;;;6.47;5.50;;;4.80;99.90;;;;;;5059246;28;20175;-67
2023/12/07 02:19:29;;;;;;;6.47;4.87;;;4.80;99.90;;;;;;5068540;28;20202;-67
2023/12/07 02:22:02;;;;;;;5.37;4.50;;;4.80;99.90;;;;;;5059408;28;20192;-68
2023/12/07 02:24:35;;;;;;;5.43;4.47;;;4.80;99.90;;;;;;5055325;28;20192;-67
2023/12/07 02:27:00;;;;;;;6.27;4.63;;;4.80;99.90;;;;;;5058616;28;20211;-67
2023/12/07 02:29:26;;;;;;;5.53;4.50;;;4.80;99.90;;;;;;5065785;28;20180;-67
2023/12/07 02:31:52;;;;;;;5.37;4.63;;;4.70;99.90;;;;;;5076314;28;20197;-68
2023/12/07 02:34:19;;;;;;;6.03;4.47;;;4.70;99.90;;;;;;5057716;28;20208;-67
2023/12/07 02:36:48;;;;;;;5.43;4.80;;;4.70;99.90;;;;;;5075448;28;20274;-67
2023/12/07 02:39:14;;;;;;;5.77;4.77;;;4.60;99.90;;;;;;5075833;28;20201;-68
2023/12/07 02:41:43;;;;;;;5.47;4.40;;;4.60;99.90;;;;;;5080477;28;20174;-67
2023/12/07 02:44:09;;;;;;;6.00;4.87;;;4.60;99.90;;;;;;5066221;28;20181;-68
2023/12/07 02:46:34;;;;;;;6.77;4.67;;;4.50;99.90;;;;;;5056538;28;20212;-68
2023/12/07 02:49:00;;;;;;;6.13;5.13;;;4.50;99.90;;;;;;5059058;28;20307;-67
2023/12/07 02:51:26;;;;;;;6.03;4.53;;;4.50;99.90;;;;;;5058910;28;20180;-68
2023/12/07 02:53:51;;;;;;;6.63;4.80;;;4.60;99.90;;;;;;5059469;28;20196;-69
2023/12/07 02:56:19;;;;;;;5.73;4.47;;;4.50;99.90;;;;;;5059112;28;20218;-68
2023/12/07 02:58:45;;;;;;;5.63;4.30;;;4.50;99.90;;;;;;5058980;28;20188;-67
2023/12/07 03:01:10;;;;;;;5.17;4.63;;;4.50;99.90;;;;;;5059426;28;20195;-67
2023/12/07 03:03:40;;;;;;;5.50;4.30;;;4.50;99.90;;;;;;5077601;28;20517;-67
2023/12/07 03:06:08;;;;;;;5.30;4.33;;;4.50;99.90;;;;;;5058999;28;20177;-67
2023/12/07 03:08:33;;;;;;;5.10;4.43;;;4.50;99.90;;;;;;5052015;28;20181;-67
2023/12/07 03:10:59;;;;;;;6.53;4.33;;;4.60;99.90;;;;;;5039051;28;20216;-67
2023/12/07 03:13:25;;;;;;;5.13;3.97;;;4.60;99.90;;;;;;5058650;28;20216;-67
2023/12/07 03:15:50;;;;;;;4.73;4.13;;;4.60;99.90;;;;;;5059086;28;20198;-67
2023/12/07 03:18:16;;;;;;;4.33;3.93;;;4.60;99.90;;;;;;5075964;28;20189;-66
2023/12/07 03:20:41;;;;;;;6.97;4.17;;;4.60;99.90;;;;;;5075533;28;20172;-67
2023/12/07 03:23:09;;;;;;;5.40;3.90;;;4.60;99.90;;;;;;5058810;28;20260;-67
2023/12/07 03:25:35;;;;;;;4.93;4.00;;;4.60;99.90;;;;;;5058661;28;20196;-67
2023/12/07 03:28:01;;;;;;;5.70;4.60;;;4.60;99.90;;;;;;5058526;28;20184;-67
2023/12/07 03:30:29;;;;;;;5.17;4.23;;;4.60;99.90;;;;;;5075107;28;20227;-67
2023/12/07 03:32:54;;;;;;;7.33;5.60;;;4.70;99.90;;;;;;5075722;28;20168;-67
2023/12/07 03:35:20;;;;;;;6.10;4.57;;;4.70;99.90;;;;;;5058307;28;20184;-67
2023/12/07 03:37:45;;;;;;;6.50;4.70;;;4.70;99.90;;;;;;5057657;28;20275;-67
2023/12/07 03:40:13;;;;;;;4.60;4.13;;;4.70;99.90;;;;;;5057260;28;20387;-68
2023/12/07 03:42:41;;;;;;;6.27;4.67;;;4.70;99.90;;;;;;5057927;28;20173;-67
2023/12/07 03:45:07;;;;;;;4.77;4.17;;;4.80;99.90;;;;;;5057616;28;20193;-67
2023/12/07 03:47:35;;;;;;;5.27;4.17;;;4.80;99.90;;;;;;5057679;28;20179;-67
2023/12/07 03:50:01;;;;;;;5.20;4.10;;;4.90;99.90;;;;;;5054652;28;20322;-68
2023/12/07 03:52:28;;;;;;;5.50;4.03;;;4.80;99.90;;;;;;5059767;28;20256;-68
2023/12/07 03:54:59;;;;;;;5.20;4.20;;;4.80;99.90;;;;;;5066955;28;20204;-67
2023/12/07 03:57:24;;;;;;;6.20;4.70;;;4.80;99.90;;;;;;5056998;28;20216;-67
2023/12/07 03:59:50;;;;;;;6.20;4.70;;;4.80;99.90;;;;;;5054202;28;20265;-67
2023/12/07 04:02:20;;;;;;;5.57;4.27;;;4.80;99.90;;;;;;5057875;28;20191;-67
2023/12/07 04:04:48;;;;;;;6.63;4.50;;;4.80;99.90;;;;;;5057746;28;20196;-67
2023/12/07 04:07:14;;;;;;;4.53;3.70;;;4.80;99.90;;;;;;5058029;28;20267;-67
2023/12/07 04:09:45;;;;;;;5.50;4.00;;;4.80;99.90;;;;;;5058198;28;20259;-67
2023/12/07 04:12:10;;;;;;;5.07;4.40;;;4.80;99.90;;;;;;5066252;28;20201;-67
2023/12/07 04:14:40;;;;;;;5.83;4.00;;;4.80;99.90;;;;;;5053646;28;20224;-68
2023/12/07 04:17:06;;;;;;;4.30;3.90;;;4.90;99.90;;;;;;5054901;28;20165;-67
2023/12/07 04:19:32;;;;;;;4.80;4.30;;;4.90;99.90;;;;;;5068837;28;20177;-68
2023/12/07 04:21:57;;;;;;;6.83;4.47;;;4.90;99.90;;;;;;5074019;28;20206;-67
2023/12/07 04:24:25;;;;;;;4.70;4.03;;;4.90;99.90;;;;;;5058150;28;20216;-67
2023/12/07 04:26:50;;;;;;;6.83;5.00;;;4.90;99.90;;;;;;5057632;28;20238;-67
2023/12/07 04:29:16;;;;;;;6.27;4.60;;;4.90;99.90;;;;;;5057832;28;20188;-68
2023/12/07 04:31:42;;;;;;;7.27;5.17;;;4.90;99.90;;;;;;5057952;28;20210;-68
2023/12/07 04:34:12;;;;;;;6.17;4.57;;;4.90;99.90;;;;;;5057906;28;20200;-68
2023/12/07 04:36:37;;;;;;;5.60;4.30;;;4.90;99.90;;;;;;5074939;28;20185;-68
2023/12/07 04:39:03;;;;;;;6.87;5.97;;;5.20;99.90;;;;;;5074781;28;20191;-67
2023/12/07 04:41:29;;;;;;;8.23;5.50;;;4.90;99.90;;;;;;5077061;28;20211;-67
2023/12/07 04:43:56;;;;;;;5.80;4.83;;;4.90;99.90;;;;;;5076768;28;20196;-67
2023/12/07 04:46:22;;;;;;;6.40;4.93;;;5.00;99.90;;;;;;5057520;28;20240;-68
2023/12/07 04:48:50;;;;;;;6.23;4.87;;;5.00;99.90;;;;;;5048122;28;20216;-68
2023/12/07 04:51:18;;;;;;;6.30;5.63;;;5.00;99.90;;;;;;5039271;28;20239;-67
2023/12/07 04:53:44;;;;;;;7.03;5.07;;;5.00;99.90;;;;;;5041237;28;20242;-68
2023/12/07 04:56:14;;;;;;;7.67;5.77;;;5.00;99.90;;;;;;5057197;28;20169;-68
2023/12/07 04:58:39;;;;;;;6.00;4.87;;;5.00;99.90;;;;;;5057252;28;20210;-67
2023/12/07 05:01:05;;;;;;;7.57;5.37;;;5.00;99.90;;;;;;5058140;28;20204;-68
2023/12/07 05:03:31;;;;;;;5.50;4.67;;;5.00;99.90;;;;;;5056935;28;20208;-67
2023/12/07 05:05:57;;;;;;;6.13;4.77;;;5.00;99.90;;;;;;5062697;28;20199;-67
2023/12/07 05:08:25;;;;;;;7.13;5.27;;;5.00;99.90;;;;;;5060445;28;20516;-68
2023/12/07 05:10:51;;;;;;;5.93;4.57;;;5.00;99.90;;;;;;5058845;28;20177;-67
2023/12/07 05:13:17;;;;;;;6.73;5.00;;;5.00;99.90;;;;;;5060079;28;20200;-67
2023/12/07 05:15:42;;;;;;;5.60;4.53;;;5.00;99.90;;;;;;5060754;28;20168;-67
2023/12/07 05:18:10;;;;;;;7.27;5.00;;;5.00;99.90;;;;;;5061240;28;20181;-67
2023/12/07 05:20:38;;;;;;;5.70;4.90;;;5.00;99.90;;;;;;5078123;28;20172;-67
2023/12/07 05:23:04;;;;;;;6.83;5.00;;;4.90;99.90;;;;;;5062322;28;20201;-67
2023/12/07 05:25:32;;;;;;;5.53;4.70;;;4.90;99.90;;;;;;5060856;28;20187;-67
2023/12/07 05:27:58;;;;;;;5.40;4.57;;;4.90;99.90;;;;;;5061020;28;20183;-67
2023/12/07 05:30:28;;;;;;;5.93;4.60;;;4.90;99.90;;;;;;5060919;28;20188;-68
2023/12/07 05:32:57;;;;;;;6.43;4.80;;;4.80;99.90;;;;;;5060838;28;20184;-67
2023/12/07 05:35:25;;;;;;;5.50;4.83;;;4.80;99.90;;;;;;5060775;28;20207;-67
2023/12/07 05:37:50;;;;;;;5.53;4.57;;;4.80;99.90;;;;;;5061055;28;20279;-67
2023/12/07 05:40:18;;;;;;;6.67;5.40;;;4.80;99.90;;;;;;5060724;28;20246;-67
2023/12/07 05:42:44;;;;;;;6.57;4.80;;;4.80;99.90;;;;;;5049828;28;20201;-67
2023/12/07 05:45:12;;;;;;;6.00;4.67;;;4.70;99.90;;;;;;5078260;28;20172;-66
2023/12/07 05:47:38;;;;;;;6.40;4.80;;;4.60;99.90;;;;;;5056346;28;20172;-67
2023/12/07 05:50:09;;;;;;;6.50;4.90;;;4.60;99.90;;;;;;5077273;28;20226;-67
2023/12/07 05:52:37;;;;;;;5.23;4.50;;;4.50;99.90;;;;;;5060966;28;20229;-67
2023/12/07 05:55:06;;;;;;;5.53;4.73;;;4.50;99.90;;;;;;5056800;28;20237;-67
2023/12/07 05:57:36;;;;;;;6.50;5.17;;;4.40;99.90;;;;;;5073873;28;20180;-68
2023/12/07 06:00:02;;;;;;;6.60;4.93;;;4.40;99.90;;;;;;5077198;28;20173;-68
2023/12/07 06:02:31;;;;;;;6.03;5.03;;;4.30;99.90;;;;;;5059898;28;20200;-66
2023/12/07 06:04:56;;;;;;;7.13;5.20;;;4.30;99.90;;;;;;5059925;28;20208;-68
2023/12/07 06:07:24;;;;;;;6.17;5.23;;;4.20;99.90;;;;;;5060152;28;20177;-67
2023/12/07 06:09:55;;;;;;;6.83;5.63;;;4.20;99.90;;;;;;5060598;28;20179;-67
2023/12/07 06:12:23;;;;;;;6.83;4.97;;;4.10;99.90;;;;;;5060727;28;20181;-67
2023/12/07 06:14:49;;;;;;;8.20;5.30;;;4.10;99.90;;;;;;5060026;28;20305;-66
2023/12/07 06:17:14;;;;;;;6.30;5.07;;;4.00;99.90;;;;;;5059506;28;20176;-66
2023/12/07 06:19:40;;;;;;;6.67;5.40;;;4.00;99.90;;;;;;5058090;28;20176;-67
2023/12/07 06:22:08;;;;;;;6.77;5.13;;;4.00;99.90;;;;;;5058140;28;20277;-67
2023/12/07 06:24:35;;;;;;;6.57;5.50;;;3.90;99.90;;;;;;5059773;28;20192;-67
2023/12/07 06:27:02;;;;;;;6.73;5.03;;;3.90;99.90;;;;;;5076656;28;20230;-67
2023/12/07 06:29:28;;;;;;;6.13;5.27;;;3.80;99.90;;;;;;5059838;28;20259;-68
2023/12/07 06:31:56;;;;;;;7.50;5.97;;;3.80;99.90;;;;;;5056421;28;20189;-67
2023/12/07 06:34:22;;;;;;;7.07;5.83;;;3.70;99.90;;;;;;5064703;28;20252;-67
2023/12/07 06:36:55;;;;;;;7.37;5.67;;;3.70;99.90;;;;;;5059246;28;20228;-67
2023/12/07 06:39:23;;;;;;;9.33;5.43;;;3.70;99.90;;;;;;5059469;28;20259;-67
2023/12/07 06:41:54;;;;;;;7.33;5.33;;;3.60;99.90;;;;;;5058984;28;20268;-67
2023/12/07 06:44:24;;;;;;;8.23;5.63;;;3.60;99.90;;;;;;5072782;28;20195;-67
2023/12/07 06:46:50;;;;;;;6.60;5.33;;;3.50;99.90;;;;;;5059142;28;20204;-67
2023/12/07 06:49:15;;;;;;;8.07;5.50;;;3.50;99.90;;;;;;5059347;28;20188;-67
2023/12/07 06:51:43;;;;;;;7.17;5.80;;;3.50;99.90;;;;;;5070981;28;20239;-67
2023/12/07 06:54:09;;;;;;;7.50;5.77;;;3.40;99.90;;;;;;5056027;28;20221;-67
2023/12/07 06:56:34;;;;;;;7.50;5.97;;;3.40;99.90;;;;;;5075080;28;20173;-67
2023/12/07 06:59:02;;;;;;;7.37;5.90;;;3.40;99.90;;;;;;5059032;28;20187;-66
2023/12/07 07:01:30;;;;;;;7.80;6.00;;;3.30;99.90;;;;;;5058770;28;20223;-68
2023/12/07 07:03:56;;;;;;;7.03;5.03;;;3.30;99.90;;;;;;5072245;28;20176;-67
2023/12/07 07:06:22;;;;;;;7.13;5.47;;;3.30;99.90;;;;;;5058587;28;20195;-67
2023/12/07 07:08:49;;;;;;;8.53;5.57;;;3.30;99.90;;;;;;5061223;28;20233;-67
2023/12/07 07:11:15;;;;;;;7.63;5.90;;;3.20;99.90;;;;;;5070257;28;20176;-67
2023/12/07 07:13:41;;;;;;;8.07;6.30;;;3.20;99.90;;;;;;5059176;28;20203;-68
2023/12/07 07:16:10;;;;;;;7.37;5.60;;;3.20;99.90;;;;;;5065572;28;20204;-68
2023/12/07 07:18:38;;;;;;;7.47;5.87;;;3.10;99.90;;;;;;5058756;28;20172;-67
2023/12/07 07:21:06;;;;;;;7.77;6.03;;;3.20;99.90;;;;;;5058508;28;20226;-67
2023/12/07 07:23:33;;;;;;;8.57;6.23;;;3.10;99.90;;;;;;5058418;28;20188;-69
2023/12/07 07:25:59;;;;;;;6.97;5.40;;;3.10;99.90;;;;;;5058457;28;20245;-67
2023/12/07 07:28:24;;;;;;;7.43;5.70;;;3.10;99.90;;;;;;5058729;28;20180;-67
2023/12/07 07:30:54;;;;;;;6.87;5.23;;;3.10;99.90;;;;;;5058073;28;20181;-67
2023/12/07 07:33:20;;;;;;;6.87;5.60;;;3.10;99.90;;;;;;5058351;28;20471;-68
2023/12/07 07:35:46;;;;;;;7.10;5.90;;;3.10;99.90;;;;;;5058193;28;20196;-67
2023/12/07 07:38:11;;;;;;;7.73;5.20;;;3.10;99.90;;;;;;5058446;28;20281;-67
2023/12/07 07:40:37;;;;;;;7.93;5.90;;;3.00;99.90;;;;;;5082959;28;20179;-67
2023/12/07 07:43:03;;;;;;;8.23;6.07;;;3.00;99.90;;;;;;5061793;28;20204;-67
2023/12/07 07:45:28;;;;;;;8.93;6.30;;;3.00;99.90;;;;;;5057967;28;20184;-67
2023/12/07 07:47:56;;;;;;;8.10;5.97;;;3.00;99.90;;;;;;5058264;28;20208;-67
2023/12/07 07:50:22;;;;;;;7.57;6.00;;;3.00;99.90;;;;;;5057771;28;20219;-67
2023/12/07 07:52:49;;;;;;;7.10;5.63;;;3.00;99.90;;;;;;5065613;28;20176;-67
2023/12/07 07:55:17;;;;;;;7.60;6.10;;;3.00;99.90;;;;;;5071614;28;20172;-67
2023/12/07 07:57:43;;;;;;;7.83;6.10;;;3.00;99.90;;;;;;5054836;28;20181;-67
2023/12/07 08:00:14;;;;;;;8.83;6.73;;;3.00;99.90;;;;;;5055867;28;20172;-67
2023/12/07 08:02:40;;;;;;;8.13;6.70;;;3.10;99.90;;;;;;5058124;28;20180;-67
2023/12/07 08:05:06;;;;;;;10.33;6.67;;;3.10;99.90;;;;;;5057597;28;20191;-67
2023/12/07 08:07:34;;;;;;;8.23;6.43;;;3.10;99.90;;;;;;5057525;28;20180;-67
2023/12/07 08:10:03;;;;;;;9.17;6.20;;;3.10;99.90;;;;;;5057514;28;20200;-67
2023/12/07 08:12:29;;;;;;;9.07;6.40;;;3.10;99.90;;;;;;5065500;28;20171;-69
2023/12/07 08:14:54;;;;;;;8.77;6.47;;;3.10;99.90;;;;;;5057577;28;20200;-67
2023/12/07 08:17:21;;;;;;;9.80;7.43;;;3.10;99.90;;;;;;5057797;28;20203;-68
2023/12/07 08:19:47;;;;;;;11.10;7.70;;;3.10;99.90;;;;;;5057440;28;20176;-67
2023/12/07 08:22:15;;;;;;;10.43;7.17;;;3.20;99.90;;;;;;5057321;28;20187;-67
2023/12/07 08:24:43;;;;;;;8.80;6.70;;;3.20;99.90;;;;;;5058387;28;20212;-68
2023/12/07 08:27:09;;;;;;;9.87;7.20;;;3.20;99.90;;;;;;5057939;28;20179;-69
2023/12/07 08:29:37;;;;;;;10.00;7.40;;;3.30;99.90;;;;;;5057834;28;20271;-68
2023/12/07 08:32:03;;;;;;;9.37;7.03;;;3.20;99.90;;;;;;5057583;28;20180;-68
2023/12/07 08:34:30;;;;;;;8.90;6.60;;;3.20;99.90;;;;;;5057502;28;20197;-67
2023/12/07 08:36:57;;;;;;;8.87;7.13;;;3.30;99.90;;;;;;5057338;28;20288;-69
2023/12/07 08:39:26;;;;;;;10.23;7.60;;;3.30;99.90;;;;;;5057824;28;20187;-68
2023/12/07 08:41:51;;;;;;;9.80;7.63;;;3.30;99.90;;;;;;5058399;28;20172;-68
2023/12/07 08:44:17;;;;;;;11.07;7.77;;;3.30;99.90;;;;;;5061338;28;20233;-67
2023/12/07 08:46:46;;;;;;;12.93;8.37;;;3.30;99.90;;;;;;5068075;28;20217;-66
2023/12/07 08:49:14;;;;;;;10.20;7.10;;;3.40;99.90;;;;;;5065222;28;20184;-67
2023/12/07 08:51:40;;;;;;;9.13;6.73;;;3.50;99.90;;;;;;5065391;28;20200;-67
2023/12/07 08:54:08;;;;;;;10.50;7.70;;;3.40;99.90;;;;;;5061187;28;20207;-67
2023/12/07 08:56:34;;;;;;;9.87;7.27;;;3.50;99.90;;;;;;5061319;28;20521;-67
2023/12/07 08:58:59;;;;;;;8.13;6.97;;;3.60;99.90;;;;;;5061369;28;20193;-68
2023/12/07 09:01:30;;;;;;;10.20;7.53;;;3.70;99.90;;;;;;5061290;28;20175;-67
2023/12/07 09:03:58;;;;;;;11.97;8.20;;;3.90;99.90;;;;;;5061162;28;20189;-67
2023/12/07 09:06:26;;;;;;;9.47;7.73;;;4.20;99.90;;;;;;5061031;28;20401;-67
2023/12/07 09:08:51;;;;;;;10.00;7.80;;;4.40;99.90;;;;;;5060988;28;20212;-68
2023/12/07 09:11:19;;;;;;;9.53;7.87;;;4.50;99.90;;;;;;5060977;28;20200;-67
2023/12/07 09:13:45;;;;;;;9.80;7.63;;;4.50;99.90;;;;;;5062476;28;20196;-68
2023/12/07 09:16:10;;;;;;;9.80;7.27;;;4.60;99.90;;;;;;5073149;28;20176;-68
2023/12/07 09:18:36;;;;;;;9.07;7.30;;;4.70;99.90;;;;;;5060949;28;20193;-68
2023/12/07 09:21:02;;;;;;;9.67;7.47;;;4.90;99.90;;;;;;5060704;28;20180;-68
2023/12/07 09:23:30;;;;;;;8.67;7.30;;;5.00;99.90;;;;;;5071453;28;20192;-68
2023/12/07 09:25:56;;;;;;;9.23;7.27;;;5.20;99.90;;;;;;5060566;28;20209;-67
2023/12/07 09:28:24;;;;;;;9.93;7.30;;;5.30;99.90;;;;;;5060654;28;20241;-67
2023/12/07 09:30:52;;;;;;;9.50;7.83;;;5.40;99.90;;;;;;5077415;28;20184;-68
2023/12/07 09:33:17;;;;;;;10.90;8.40;;;5.50;99.90;;;;;;5060840;28;20196;-68
2023/12/07 09:35:45;;;;;;;12.43;8.60;;;5.60;99.90;;;;;;5094030;22;20893;-68
2023/12/07 09:38:11;;;;;;;10.97;8.73;;;5.60;99.90;;;;;;5041478;28;20283;-68
2023/12/07 09:40:36;;;;;;;9.00;7.73;;;5.70;99.90;;;;;;5056667;28;20173;-68
2023/12/07 09:43:04;;;;;;;9.10;8.00;;;5.70;99.90;;;;;;5057537;28;20211;-68
2023/12/07 09:45:32;;;;;;;10.00;8.20;;;5.70;99.90;;;;;;5056557;28;20192;-68
2023/12/07 09:47:59;;;;;;;9.43;7.60;;;5.80;99.90;;;;;;5056799;28;20170;-68
2023/12/07 09:50:27;;;;;;;10.97;8.47;;;5.80;99.90;;;;;;5056647;28;20542;-68
2023/12/07 09:52:56;;;;;;;9.97;8.00;;;5.90;99.90;;;;;;5056579;28;20183;-68
2023/12/07 09:55:22;;;;;;;9.20;7.73;;;5.90;99.90;;;;;;5056489;28;20264;-68
2023/12/07 09:57:51;;;;;;;9.07;8.00;;;5.90;99.90;;;;;;5073148;28;20177;-68
2023/12/07 10:00:20;;;;;;;8.93;7.40;;;6.00;99.90;;;;;;5056793;28;20264;-70
2023/12/07 10:02:49;;;;;;;11.63;8.87;;;6.10;99.90;;;;;;5056529;28;20205;-69
2023/12/07 10:05:16;;;;;;;10.63;8.50;;;6.10;99.90;;;;;;5056483;28;20204;-67
2023/12/07 10:07:46;;;;;;;11.93;7.87;;;6.10;99.90;;;;;;5056386;28;20201;-69
2023/12/07 10:10:12;;;;;;;9.33;7.90;;;6.10;99.90;;;;;;5073174;28;20177;-69
2023/12/07 10:12:46;;;;;;;8.90;7.60;;;6.20;99.90;;;;;;5067109;28;20265;-69
2023/12/07 10:15:16;;;;;;;9.73;7.83;;;6.20;99.90;;;;;;5045964;28;20204;-68
2023/12/07 10:17:46;;;;;;;10.30;7.90;;;6.30;99.90;;;;;;5036460;28;20178;-69
2023/12/07 10:20:12;;;;;;;9.10;7.90;;;6.30;99.90;;;;;;5037704;28;20198;-69
2023/12/07 10:22:39;;;;;;;9.53;8.03;;;6.30;99.90;;;;;;5053546;28;20184;-69
2023/12/07 10:25:09;;;;;;;9.77;7.53;;;6.40;99.90;;;;;;5050935;28;20181;-69
2023/12/07 10:27:35;;;;;;;9.07;7.37;;;6.30;99.90;;;;;;5056051;28;20479;-68
2023/12/07 10:30:03;;;;;;;8.53;7.10;;;6.40;99.90;;;;;;5056014;28;20188;-69
2023/12/07 10:32:28;;;;;;;8.47;6.93;;;6.40;99.90;;;;;;5043814;28;20202;-68
2023/12/07 10:34:58;;;;;;;8.77;7.30;;;6.40;99.90;;;;;;5036215;28;20201;-68
2023/12/07 10:37:23;;;;;;;8.07;7.17;;;6.40;99.90;;;;;;5035798;28;20232;-68
2023/12/07 10:39:49;;;;;;;8.13;6.67;;;6.50;99.90;;;;;;5055398;28;20200;-68
2023/12/07 10:42:18;;;;;;;8.40;6.97;;;6.50;99.90;;;;;;5055765;28;20284;-68
2023/12/07 10:44:46;;;;;;;8.93;7.00;;;6.60;99.90;;;;;;5055810;28;20240;-68
2023/12/07 10:47:12;;;;;;;10.10;7.67;;;6.60;99.90;;;;;;5056484;28;20231;-68
2023/12/07 10:49:43;;;;;;;8.90;7.17;;;6.60;99.90;;;;;;5055032;28;20201;-68
2023/12/07 10:52:13;;;;;;;9.47;7.17;;;6.70;99.90;;;;;;5055636;28;20232;-68
2023/12/07 10:55:03;;;;;;;7.80;6.97;;;6.70;99.90;;;;;;5055211;28;20208;-68
2023/12/07 10:57:32;;;;;;;9.00;7.60;;;6.80;99.90;;;;;;5055475;28;20191;-68
2023/12/07 11:00:00;;;;;;;8.30;7.20;;;6.80;99.90;;;;;;5048321;28;20273;-68
2023/12/07 11:02:30;;;;;;;9.50;8.07;;;6.90;99.90;;;;;;5050384;28;20246;-67
2023/12/07 11:04:57;;;;;;;9.90;7.97;;;6.90;99.90;;;;;;5054568;28;20212;-67
2023/12/07 11:07:25;;;;;;;9.50;7.30;;;6.90;99.90;;;;;;5055192;28;20279;-68
2023/12/07 11:10:05;;;;;;;8.83;6.60;;;7.00;99.90;;;;;;5054972;28;20188;-68
2023/12/07 11:12:47;;;;;;;8.70;7.20;;;7.00;99.90;;;;;;5054985;28;20214;-68
2023/12/07 11:15:14;;;;;;;11.33;7.40;;;7.20;99.90;;;;;;5055193;28;20198;-68
2023/12/07 11:18:02;;;;;;;8.17;6.70;;;7.30;99.90;;;;;;5055001;28;20223;-68
2023/12/07 11:20:44;;;;;;;8.53;7.07;;;7.40;99.90;;;;;;5054582;28;20166;-68
2023/12/07 11:23:18;;;;;;;8.87;7.40;;;7.50;99.90;;;;;;5044432;28;20230;-68
2023/12/07 11:25:47;;;;;;;8.17;7.03;;;7.80;99.90;;;;;;5055539;28;20249;-68
2023/12/07 11:28:13;;;;;;;9.43;7.20;;;7.90;99.90;;;;;;5037919;28;20328;-68
2023/12/07 11:30:43;;;;;;;8.80;6.93;;;8.10;99.90;;;;;;5055013;28;20198;-68
2023/12/07 11:33:12;;;;;;;8.07;6.77;;;8.20;99.90;;;;;;5054938;28;20226;-68
2023/12/07 11:36:02;;;;;;;11.10;7.80;;;8.30;99.90;;;;;;5054536;28;20231;-67
2023/12/07 11:38:30;;;;;;;7.63;6.50;;;8.40;99.90;;;;;;5054757;28;20173;-68
2023/12/07 11:41:02;;;;;;;8.70;6.60;;;8.60;99.90;;;;;;5054896;28;20178;-69
2023/12/07 11:43:37;;;;;;;8.67;6.30;;;8.60;99.90;;;;;;5054592;28;20196;-70
2023/12/07 11:46:03;;;;;;;7.40;6.20;;;8.80;99.90;;;;;;5054860;28;20267;-68
2023/12/07 11:48:31;;;;;;;8.07;6.10;;;8.90;99.90;;;;;;5071287;28;20304;-69
2023/12/07 11:51:13;;;;;;;7.03;5.80;;;9.10;99.90;;;;;;5041487;28;20174;-66
2023/12/07 11:53:38;;;;;;;7.20;5.80;;;9.10;99.90;;;;;;5054429;28;20192;-69
2023/12/07 11:56:11;;;;;;;6.20;5.60;;;9.30;99.90;;;;;;5055336;28;20154;-68
2023/12/07 11:58:38;;;;;;;6.60;5.23;;;9.30;99.90;;;;;;5054539;28;20215;-70
2023/12/07 12:01:07;;;;;;;7.70;5.82;;;9.40;99.90;;;;;;5054695;28;20188;-70
2023/12/07 12:03:32;;;;;;;7.75;5.72;;;9.40;99.90;;;;;;5043670;28;20182;-70
2023/12/07 12:06:00;;;;;;;7.33;6.03;;;9.50;99.90;;;;;;5036847;28;20205;-69
2023/12/07 12:08:26;;;;;;;6.50;5.80;;;9.40;99.90;;;;;;5054186;28;20238;-69
2023/12/07 12:10:53;;;;;;;6.72;6.03;;;9.30;99.90;;;;;;5053874;28;20185;-70
2023/12/07 12:13:19;;;;;;;6.10;5.50;;;9.40;99.90;;;;;;5043149;28;20201;-69
2023/12/07 12:15:48;;;;;;;5.73;4.90;;;9.30;99.90;;;;;;5053228;28;20245;-70
2023/12/07 12:18:16;;;;;;;7.40;5.47;;;9.20;99.90;;;;;;5035824;28;20288;-69
2023/12/07 12:20:43;;;;;;;7.20;5.70;;;9.20;99.90;;;;;;5054250;28;20260;-69
2023/12/07 12:23:09;;;;;;;6.43;5.57;;;9.10;99.90;;;;;;5039675;28;20182;-69
2023/12/07 12:25:39;;;;;;;6.23;4.97;;;8.90;99.90;;;;;;5049528;28;20272;-70
2023/12/07 12:28:06;;;;;;;6.23;4.90;;;8.80;99.90;;;;;;5051269;28;20257;-70
2023/12/07 12:30:35;;;;;;;6.10;5.00;;;8.70;99.90;;;;;;5055006;28;20223;-67
2023/12/07 12:33:02;;;;;;;8.03;5.67;;;8.60;99.90;;;;;;5043829;28;20185;-69
2023/12/07 12:35:32;;;;;;;6.33;4.80;;;8.50;99.90;;;;;;5054466;28;20200;-68
2023/12/07 12:37:58;;;;;;;6.03;4.90;;;8.40;99.90;;;;;;5058667;28;20185;-68
2023/12/07 12:40:29;;;;;;;6.30;5.13;;;8.40;99.90;;;;;;5034367;28;20170;-68
2023/12/07 12:42:55;;;;;;;6.57;4.87;;;8.30;99.90;;;;;;5034186;28;20174;-69
2023/12/07 12:45:23;;;;;;;5.53;4.83;;;8.30;99.90;;;;;;5042922;28;20185;-68
2023/12/07 12:47:49;;;;;;;6.00;4.60;;;8.20;99.90;;;;;;5040256;28;20266;-70
2023/12/07 12:50:37;;;;;;;5.20;4.60;;;8.10;99.90;;;;;;5054215;28;20177;-69
2023/12/07 12:53:04;;;;;;;5.40;4.27;;;8.00;99.90;;;;;;5053834;28;20204;-69
2023/12/07 12:55:36;;;;;;;5.67;4.57;;;8.00;99.90;;;;;;5054104;28;20185;-70
2023/12/07 12:58:04;;;;;;;7.30;5.80;;;8.00;99.90;;;;;;5053110;28;20170;-69